Time;durP1;ratioP1;P1;durP2;ratioP2;P2;SDS_P1;SDS_P2;PMS_P1;PMS_P2;Temp;Humidity;BMP_temperature;BMP_pressure;BME280_temperature;BME280_humidity;BME280_pressure;Samples;Min_cycle;Max_cycle;Signal;HPM_P1;HPM_P2
2022/10/14 00:00:00;;;;;;;1.7;1.6;;;;;;;13.6;100.0;101310;;;;
2022/10/14 00:01:04;;;;;;;1.7;1.6;;;;;;;13.6;100.0;101310;;;;
2022/10/14 00:02:00;;;;;;;1.7;1.6;;;;;;;13.6;100.0;101310;;;;
2022/10/14 00:03:00;;;;;;;1.7;1.6;;;;;;;13.6;100.0;101310;;;;
2022/10/14 00:04:00;;;;;;;1.7;1.6;;;;;;;13.6;100.0;101310;;;;
2022/10/14 00:05:00;;;;;;;1.7;1.6;;;;;;;13.6;100.0;101310;;;;
2022/10/14 00:06:03;;;;;;;1.7;1.6;;;;;;;13.6;100.0;101310;;;;
2022/10/14 00:07:00;;;;;;;1.7;1.6;;;;;;;13.6;100.0;101310;;;;
2022/10/14 00:08:00;;;;;;;1.7;1.6;;;;;;;13.6;100.0;101300;;;;
2022/10/14 00:09:02;;;;;;;1.7;1.6;;;;;;;13.6;100.0;101300;;;;
2022/10/14 00:10:00;;;;;;;1.7;1.6;;;;;;;13.6;100.0;101300;;;;
2022/10/14 00:11:04;;;;;;;1.7;1.6;;;;;;;13.6;100.0;101300;;;;
2022/10/14 00:12:00;;;;;;;1.7;1.6;;;;;;;13.6;100.0;101300;;;;
2022/10/14 00:13:00;;;;;;;1.7;1.6;;;;;;;13.6;100.0;101300;;;;
2022/10/14 00:14:02;;;;;;;1.7;1.6;;;;;;;13.6;100.0;101300;;;;
2022/10/14 00:15:00;;;;;;;1.7;1.6;;;;;;;13.6;100.0;101300;;;;
2022/10/14 00:16:00;;;;;;;1.7;1.6;;;;;;;13.6;100.0;101300;;;;
2022/10/14 00:17:00;;;;;;;1.7;1.6;;;;;;;13.6;100.0;101300;;;;
2022/10/14 00:18:00;;;;;;;0.5;0.5;;;;;;;13.7;100.0;101300;;;;
2022/10/14 00:19:00;;;;;;;0.5;0.5;;;;;;;13.7;100.0;101300;;;;
2022/10/14 00:20:00;;;;;;;0.5;0.5;;;;;;;13.6;100.0;101300;;;;
2022/10/14 00:21:00;;;;;;;0.5;0.5;;;;;;;13.6;100.0;101300;;;;
2022/10/14 00:22:00;;;;;;;0.5;0.5;;;;;;;13.6;100.0;101300;;;;
2022/10/14 00:23:00;;;;;;;0.5;0.5;;;;;;;13.6;100.0;101300;;;;
2022/10/14 00:24:00;;;;;;;0.5;0.5;;;;;;;13.6;100.0;101300;;;;
2022/10/14 00:25:00;;;;;;;0.5;0.5;;;;;;;13.6;100.0;101300;;;;
2022/10/14 00:26:00;;;;;;;0.5;0.5;;;;;;;13.6;100.0;101300;;;;
2022/10/14 00:27:00;;;;;;;0.5;0.5;;;;;;;13.6;100.0;101300;;;;
2022/10/14 00:28:02;;;;;;;0.5;0.5;;;;;;;13.7;100.0;101300;;;;
2022/10/14 00:29:00;;;;;;;0.5;0.5;;;;;;;13.7;100.0;101300;;;;
2022/10/14 00:30:00;;;;;;;0.5;0.5;;;;;;;13.6;100.0;101310;;;;
2022/10/14 00:31:00;;;;;;;0.5;0.5;;;;;;;13.6;100.0;101310;;;;
2022/10/14 00:32:00;;;;;;;0.5;0.5;;;;;;;13.7;100.0;101300;;;;
2022/10/14 00:33:00;;;;;;;0.5;0.5;;;;;;;13.7;100.0;101300;;;;
2022/10/14 00:34:00;;;;;;;0.5;0.5;;;;;;;13.7;100.0;101300;;;;
2022/10/14 00:35:00;;;;;;;0.5;0.5;;;;;;;13.7;100.0;101300;;;;
2022/10/14 00:36:01;;;;;;;0.5;0.5;;;;;;;13.6;100.0;101310;;;;
2022/10/14 00:37:00;;;;;;;0.5;0.5;;;;;;;13.6;100.0;101310;;;;
2022/10/14 00:38:00;;;;;;;0.5;0.5;;;;;;;13.6;100.0;101300;;;;
2022/10/14 00:39:00;;;;;;;0.5;0.5;;;;;;;13.6;100.0;101300;;;;
2022/10/14 00:40:00;;;;;;;0.5;0.5;;;;;;;13.7;100.0;101300;;;;
2022/10/14 00:41:00;;;;;;;0.5;0.5;;;;;;;13.7;100.0;101300;;;;
2022/10/14 00:42:00;;;;;;;0.5;0.5;;;;;;;13.7;100.0;101300;;;;
2022/10/14 00:43:00;;;;;;;0.5;0.5;;;;;;;13.7;100.0;101300;;;;
2022/10/14 00:44:05;;;;;;;0.5;0.5;;;;;;;13.7;100.0;101290;;;;
2022/10/14 00:45:02;;;;;;;0.5;0.5;;;;;;;13.7;100.0;101290;;;;
2022/10/14 00:46:00;;;;;;;0.5;0.5;;;;;;;13.7;100.0;101290;;;;
2022/10/14 00:47:00;;;;;;;0.5;0.5;;;;;;;13.7;100.0;101290;;;;
2022/10/14 00:48:00;;;;;;;0.5;0.5;;;;;;;13.7;100.0;101290;;;;
2022/10/14 00:49:07;;;;;;;0.5;0.5;;;;;;;13.7;100.0;101290;;;;
2022/10/14 00:50:00;;;;;;;0.5;0.5;;;;;;;13.7;100.0;101290;;;;
2022/10/14 00:51:00;;;;;;;0.5;0.5;;;;;;;13.7;100.0;101290;;;;
2022/10/14 00:52:03;;;;;;;0.5;0.5;;;;;;;13.8;100.0;101290;;;;
2022/10/14 00:53:00;;;;;;;0.5;0.5;;;;;;;13.8;100.0;101290;;;;
2022/10/14 00:54:00;;;;;;;0.5;0.5;;;;;;;13.8;100.0;101290;;;;
2022/10/14 00:55:02;;;;;;;0.5;0.5;;;;;;;13.8;100.0;101290;;;;
2022/10/14 00:56:00;;;;;;;0.5;0.5;;;;;;;13.7;100.0;101280;;;;
2022/10/14 00:57:01;;;;;;;0.5;0.5;;;;;;;13.7;100.0;101280;;;;
2022/10/14 00:58:00;;;;;;;1.5;1.5;;;;;;;13.8;100.0;101280;;;;
2022/10/14 00:59:01;;;;;;;1.5;1.5;;;;;;;13.8;100.0;101280;;;;
2022/10/14 01:00:03;;;;;;;1.5;1.5;;;;;;;13.8;100.0;101280;;;;
2022/10/14 01:01:00;;;;;;;1.5;1.5;;;;;;;13.8;100.0;101280;;;;
2022/10/14 01:02:00;;;;;;;1.5;1.5;;;;;;;13.8;100.0;101280;;;;
2022/10/14 01:03:05;;;;;;;1.5;1.5;;;;;;;13.8;100.0;101280;;;;
2022/10/14 01:04:00;;;;;;;1.5;1.5;;;;;;;13.7;100.0;101280;;;;
2022/10/14 01:05:00;;;;;;;1.5;1.5;;;;;;;13.7;100.0;101280;;;;
2022/10/14 01:06:10;;;;;;;1.5;1.5;;;;;;;13.9;100.0;101280;;;;
2022/10/14 01:07:00;;;;;;;1.5;1.5;;;;;;;13.9;100.0;101280;;;;
2022/10/14 01:08:10;;;;;;;1.5;1.5;;;;;;;13.8;100.0;101280;;;;
2022/10/14 01:09:03;;;;;;;1.5;1.5;;;;;;;13.8;100.0;101280;;;;
2022/10/14 01:10:10;;;;;;;1.5;1.5;;;;;;;13.8;100.0;101270;;;;
2022/10/14 01:11:06;;;;;;;1.5;1.5;;;;;;;13.8;100.0;101270;;;;
2022/10/14 01:12:13;;;;;;;1.5;1.5;;;;;;;13.7;100.0;101270;;;;
2022/10/14 01:13:07;;;;;;;1.5;1.5;;;;;;;13.7;100.0;101270;;;;
2022/10/14 01:14:07;;;;;;;1.5;1.5;;;;;;;13.7;100.0;101270;;;;
2022/10/14 01:15:10;;;;;;;1.5;1.5;;;;;;;13.7;100.0;101270;;;;
2022/10/14 01:16:06;;;;;;;1.5;1.5;;;;;;;13.8;100.0;101260;;;;
2022/10/14 01:17:10;;;;;;;1.0;1.0;;;;;;;13.8;100.0;101260;;;;
2022/10/14 01:18:03;;;;;;;1.0;1.0;;;;;;;13.9;100.0;101260;;;;
2022/10/14 01:19:10;;;;;;;1.0;1.0;;;;;;;13.9;100.0;101260;;;;
2022/10/14 01:20:10;;;;;;;1.0;1.0;;;;;;;13.9;100.0;101260;;;;
2022/10/14 01:21:10;;;;;;;1.0;1.0;;;;;;;13.9;100.0;101260;;;;
2022/10/14 01:22:06;;;;;;;1.0;1.0;;;;;;;13.8;100.0;101260;;;;
2022/10/14 01:23:00;;;;;;;1.0;1.0;;;;;;;13.8;100.0;101260;;;;
2022/10/14 01:24:01;;;;;;;1.0;1.0;;;;;;;13.9;100.0;101260;;;;
2022/10/14 01:25:07;;;;;;;1.0;1.0;;;;;;;13.9;100.0;101260;;;;
2022/10/14 01:26:10;;;;;;;1.0;1.0;;;;;;;13.9;100.0;101250;;;;
2022/10/14 01:27:10;;;;;;;1.0;1.0;;;;;;;13.9;100.0;101250;;;;
2022/10/14 01:28:10;;;;;;;1.0;1.0;;;;;;;13.8;100.0;101250;;;;
2022/10/14 01:29:10;;;;;;;1.0;1.0;;;;;;;13.8;100.0;101250;;;;
2022/10/14 01:30:05;;;;;;;1.0;1.0;;;;;;;13.8;100.0;101250;;;;
2022/10/14 01:31:02;;;;;;;1.0;1.0;;;;;;;13.8;100.0;101250;;;;
2022/10/14 01:32:02;;;;;;;1.0;1.0;;;;;;;13.8;100.0;101240;;;;
2022/10/14 01:33:04;;;;;;;1.0;1.0;;;;;;;13.8;100.0;101240;;;;
2022/10/14 01:34:02;;;;;;;1.0;1.0;;;;;;;13.8;100.0;101240;;;;
2022/10/14 01:35:10;;;;;;;1.0;1.0;;;;;;;13.8;100.0;101240;;;;
2022/10/14 01:36:05;;;;;;;1.0;1.0;;;;;;;13.8;100.0;101230;;;;
2022/10/14 01:37:04;;;;;;;1.0;1.0;;;;;;;13.8;100.0;101230;;;;
2022/10/14 01:38:02;;;;;;;0.7;0.7;;;;;;;13.8;100.0;101230;;;;
2022/10/14 01:39:05;;;;;;;0.7;0.7;;;;;;;13.8;100.0;101230;;;;
2022/10/14 01:40:04;;;;;;;0.7;0.7;;;;;;;13.8;100.0;101220;;;;
2022/10/14 01:41:06;;;;;;;0.7;0.7;;;;;;;13.8;100.0;101220;;;;
2022/10/14 01:42:04;;;;;;;0.7;0.7;;;;;;;13.9;100.0;101220;;;;
2022/10/14 01:43:02;;;;;;;0.7;0.7;;;;;;;13.9;100.0;101220;;;;
2022/10/14 01:44:03;;;;;;;0.7;0.7;;;;;;;13.7;100.0;101210;;;;
2022/10/14 01:45:03;;;;;;;0.7;0.7;;;;;;;13.7;100.0;101210;;;;
2022/10/14 01:46:03;;;;;;;0.7;0.7;;;;;;;13.7;100.0;101210;;;;
2022/10/14 01:47:01;;;;;;;0.7;0.7;;;;;;;13.7;100.0;101210;;;;
2022/10/14 01:48:01;;;;;;;0.7;0.7;;;;;;;13.7;100.0;101200;;;;
2022/10/14 01:49:03;;;;;;;0.7;0.7;;;;;;;13.7;100.0;101200;;;;
2022/10/14 01:50:05;;;;;;;0.7;0.7;;;;;;;13.7;100.0;101200;;;;
2022/10/14 01:51:02;;;;;;;0.7;0.7;;;;;;;13.7;100.0;101200;;;;
2022/10/14 01:52:04;;;;;;;0.7;0.7;;;;;;;13.8;100.0;101190;;;;
2022/10/14 01:53:03;;;;;;;0.7;0.7;;;;;;;13.8;100.0;101190;;;;
2022/10/14 01:54:03;;;;;;;0.7;0.7;;;;;;;13.7;100.0;101190;;;;
2022/10/14 01:55:02;;;;;;;0.7;0.7;;;;;;;13.7;100.0;101190;;;;
2022/10/14 01:56:01;;;;;;;0.7;0.7;;;;;;;13.7;100.0;101190;;;;
2022/10/14 01:57:02;;;;;;;0.8;0.8;;;;;;;13.7;100.0;101190;;;;
2022/10/14 01:58:01;;;;;;;0.8;0.8;;;;;;;13.8;100.0;101190;;;;
2022/10/14 01:59:01;;;;;;;0.8;0.8;;;;;;;13.8;100.0;101190;;;;
2022/10/14 02:00:01;;;;;;;0.8;0.8;;;;;;;13.7;100.0;101200;;;;
2022/10/14 02:01:02;;;;;;;0.8;0.8;;;;;;;13.7;100.0;101200;;;;
2022/10/14 02:02:00;;;;;;;0.8;0.8;;;;;;;13.6;100.0;101210;;;;
2022/10/14 02:03:00;;;;;;;0.8;0.8;;;;;;;13.6;100.0;101210;;;;
2022/10/14 02:04:00;;;;;;;0.8;0.8;;;;;;;13.6;100.0;101200;;;;
2022/10/14 02:05:00;;;;;;;0.8;0.8;;;;;;;13.6;100.0;101200;;;;
2022/10/14 02:06:02;;;;;;;0.8;0.8;;;;;;;13.6;100.0;101200;;;;
2022/10/14 02:07:03;;;;;;;0.8;0.8;;;;;;;13.6;100.0;101200;;;;
2022/10/14 02:08:09;;;;;;;0.8;0.8;;;;;;;13.8;100.0;101210;;;;
2022/10/14 02:09:07;;;;;;;0.8;0.8;;;;;;;13.8;100.0;101210;;;;
2022/10/14 02:10:01;;;;;;;0.8;0.8;;;;;;;13.9;100.0;101210;;;;
2022/10/14 02:11:10;;;;;;;0.8;0.8;;;;;;;13.9;100.0;101210;;;;
2022/10/14 02:12:10;;;;;;;0.8;0.8;;;;;;;13.6;100.0;101200;;;;
2022/10/14 02:13:10;;;;;;;0.8;0.8;;;;;;;13.6;100.0;101200;;;;
2022/10/14 02:14:10;;;;;;;0.8;0.8;;;;;;;13.7;100.0;101200;;;;
2022/10/14 02:15:06;;;;;;;0.8;0.8;;;;;;;13.7;100.0;101200;;;;
2022/10/14 02:16:01;;;;;;;0.8;0.8;;;;;;;13.6;100.0;101200;;;;
2022/10/14 02:17:03;;;;;;;0.7;0.7;;;;;;;13.6;100.0;101200;;;;
2022/10/14 02:18:10;;;;;;;0.7;0.7;;;;;;;13.7;100.0;101190;;;;
2022/10/14 02:19:02;;;;;;;0.7;0.7;;;;;;;13.7;100.0;101190;;;;
2022/10/14 02:20:04;;;;;;;0.7;0.7;;;;;;;13.6;100.0;101190;;;;
2022/10/14 02:21:10;;;;;;;0.7;0.7;;;;;;;13.6;100.0;101190;;;;
2022/10/14 02:22:05;;;;;;;0.7;0.7;;;;;;;13.7;100.0;101190;;;;
2022/10/14 02:23:05;;;;;;;0.7;0.7;;;;;;;13.7;100.0;101190;;;;
2022/10/14 02:24:06;;;;;;;0.7;0.7;;;;;;;13.7;100.0;101190;;;;
2022/10/14 02:25:05;;;;;;;0.7;0.7;;;;;;;13.7;100.0;101190;;;;
2022/10/14 02:26:01;;;;;;;0.7;0.7;;;;;;;13.8;100.0;101190;;;;
2022/10/14 02:27:03;;;;;;;0.7;0.7;;;;;;;13.8;100.0;101190;;;;
2022/10/14 02:28:01;;;;;;;0.7;0.7;;;;;;;13.6;100.0;101190;;;;
2022/10/14 02:29:00;;;;;;;0.7;0.7;;;;;;;13.6;100.0;101190;;;;
2022/10/14 02:30:00;;;;;;;0.7;0.7;;;;;;;13.6;100.0;101190;;;;
2022/10/14 02:31:03;;;;;;;0.7;0.7;;;;;;;13.6;100.0;101190;;;;
2022/10/14 02:32:01;;;;;;;0.7;0.7;;;;;;;13.7;100.0;101190;;;;
2022/10/14 02:33:00;;;;;;;0.7;0.7;;;;;;;13.7;100.0;101190;;;;
2022/10/14 02:34:02;;;;;;;0.7;0.7;;;;;;;13.6;100.0;101190;;;;
2022/10/14 02:35:01;;;;;;;0.7;0.7;;;;;;;13.6;100.0;101190;;;;
2022/10/14 02:36:01;;;;;;;0.7;0.7;;;;;;;13.5;100.0;101190;;;;
2022/10/14 02:37:00;;;;;;;1.6;1.5;;;;;;;13.5;100.0;101190;;;;
2022/10/14 02:38:00;;;;;;;1.6;1.5;;;;;;;13.8;100.0;101190;;;;
2022/10/14 02:39:00;;;;;;;1.6;1.5;;;;;;;13.8;100.0;101190;;;;
2022/10/14 02:40:06;;;;;;;1.6;1.5;;;;;;;13.6;100.0;101190;;;;
2022/10/14 02:41:02;;;;;;;1.6;1.5;;;;;;;13.6;100.0;101190;;;;
2022/10/14 02:42:00;;;;;;;1.6;1.5;;;;;;;13.7;100.0;101190;;;;
2022/10/14 02:43:00;;;;;;;1.6;1.5;;;;;;;13.7;100.0;101190;;;;
2022/10/14 02:44:00;;;;;;;1.6;1.5;;;;;;;13.6;100.0;101190;;;;
2022/10/14 02:45:00;;;;;;;1.6;1.5;;;;;;;13.6;100.0;101190;;;;
2022/10/14 02:46:01;;;;;;;1.6;1.5;;;;;;;13.6;100.0;101190;;;;
2022/10/14 02:47:00;;;;;;;1.6;1.5;;;;;;;13.6;100.0;101190;;;;
2022/10/14 02:48:00;;;;;;;1.6;1.5;;;;;;;13.6;100.0;101190;;;;
2022/10/14 02:49:00;;;;;;;1.6;1.5;;;;;;;13.6;100.0;101190;;;;
2022/10/14 02:50:00;;;;;;;1.6;1.5;;;;;;;13.6;100.0;101190;;;;
2022/10/14 02:51:00;;;;;;;1.6;1.5;;;;;;;13.6;100.0;101190;;;;
2022/10/14 02:52:00;;;;;;;1.6;1.5;;;;;;;13.7;100.0;101190;;;;
2022/10/14 02:53:00;;;;;;;1.6;1.5;;;;;;;13.7;100.0;101190;;;;
2022/10/14 02:54:01;;;;;;;1.6;1.5;;;;;;;13.7;100.0;101190;;;;
2022/10/14 02:55:00;;;;;;;1.6;1.5;;;;;;;13.7;100.0;101190;;;;
2022/10/14 02:56:00;;;;;;;1.6;1.5;;;;;;;13.7;100.0;101190;;;;
2022/10/14 02:57:00;;;;;;;1.8;1.7;;;;;;;13.7;100.0;101190;;;;
2022/10/14 02:58:00;;;;;;;1.8;1.7;;;;;;;13.7;100.0;101180;;;;
2022/10/14 02:59:00;;;;;;;1.8;1.7;;;;;;;13.7;100.0;101180;;;;
2022/10/14 03:00:00;;;;;;;1.8;1.7;;;;;;;13.7;100.0;101180;;;;
2022/10/14 03:01:00;;;;;;;1.8;1.7;;;;;;;13.7;100.0;101180;;;;
2022/10/14 03:02:00;;;;;;;1.8;1.7;;;;;;;13.7;100.0;101190;;;;
2022/10/14 03:03:00;;;;;;;1.8;1.7;;;;;;;13.7;100.0;101190;;;;
2022/10/14 03:04:00;;;;;;;1.8;1.7;;;;;;;13.6;100.0;101180;;;;
2022/10/14 03:05:00;;;;;;;1.8;1.7;;;;;;;13.6;100.0;101180;;;;
2022/10/14 03:06:00;;;;;;;1.8;1.7;;;;;;;13.5;100.0;101180;;;;
2022/10/14 03:07:00;;;;;;;1.8;1.7;;;;;;;13.5;100.0;101180;;;;
2022/10/14 03:08:00;;;;;;;1.8;1.7;;;;;;;13.5;100.0;101170;;;;
2022/10/14 03:09:00;;;;;;;1.8;1.7;;;;;;;13.5;100.0;101170;;;;
2022/10/14 03:10:00;;;;;;;1.8;1.7;;;;;;;13.7;100.0;101160;;;;
2022/10/14 03:11:00;;;;;;;1.8;1.7;;;;;;;13.7;100.0;101160;;;;
2022/10/14 03:12:00;;;;;;;1.8;1.7;;;;;;;13.7;100.0;101160;;;;
2022/10/14 03:13:00;;;;;;;1.8;1.7;;;;;;;13.7;100.0;101160;;;;
2022/10/14 03:14:00;;;;;;;1.8;1.7;;;;;;;13.7;100.0;101160;;;;
2022/10/14 03:15:00;;;;;;;1.8;1.7;;;;;;;13.7;100.0;101160;;;;
2022/10/14 03:16:00;;;;;;;1.8;1.7;;;;;;;13.6;100.0;101160;;;;
2022/10/14 03:17:00;;;;;;;0.6;0.6;;;;;;;13.6;100.0;101160;;;;
2022/10/14 03:18:00;;;;;;;0.6;0.6;;;;;;;13.6;100.0;101160;;;;
2022/10/14 03:19:00;;;;;;;0.6;0.6;;;;;;;13.6;100.0;101160;;;;
2022/10/14 03:20:00;;;;;;;0.6;0.6;;;;;;;13.6;100.0;101150;;;;
2022/10/14 03:21:00;;;;;;;0.6;0.6;;;;;;;13.6;100.0;101150;;;;
2022/10/14 03:22:00;;;;;;;0.6;0.6;;;;;;;13.6;100.0;101150;;;;
2022/10/14 03:23:00;;;;;;;0.6;0.6;;;;;;;13.6;100.0;101150;;;;
2022/10/14 03:24:00;;;;;;;0.6;0.6;;;;;;;13.6;100.0;101150;;;;
2022/10/14 03:25:00;;;;;;;0.6;0.6;;;;;;;13.6;100.0;101150;;;;
2022/10/14 03:26:00;;;;;;;0.6;0.6;;;;;;;13.6;100.0;101150;;;;
2022/10/14 03:27:00;;;;;;;0.6;0.6;;;;;;;13.6;100.0;101150;;;;
2022/10/14 03:28:00;;;;;;;0.6;0.6;;;;;;;13.6;100.0;101150;;;;
2022/10/14 03:29:00;;;;;;;0.6;0.6;;;;;;;13.6;100.0;101150;;;;
2022/10/14 03:30:00;;;;;;;0.6;0.6;;;;;;;13.6;100.0;101140;;;;
2022/10/14 03:31:00;;;;;;;0.6;0.6;;;;;;;13.6;100.0;101140;;;;
2022/10/14 03:32:00;;;;;;;0.6;0.6;;;;;;;13.6;100.0;101140;;;;
2022/10/14 03:33:00;;;;;;;0.6;0.6;;;;;;;13.6;100.0;101140;;;;
2022/10/14 03:34:00;;;;;;;0.6;0.6;;;;;;;13.6;100.0;101140;;;;
2022/10/14 03:35:00;;;;;;;0.6;0.6;;;;;;;13.6;100.0;101140;;;;
2022/10/14 03:36:00;;;;;;;0.6;0.6;;;;;;;13.6;100.0;101140;;;;
2022/10/14 03:37:00;;;;;;;1.1;1.1;;;;;;;13.6;100.0;101140;;;;
2022/10/14 03:38:02;;;;;;;1.1;1.1;;;;;;;13.6;100.0;101150;;;;
2022/10/14 03:39:00;;;;;;;1.1;1.1;;;;;;;13.6;100.0;101150;;;;
2022/10/14 03:40:00;;;;;;;1.1;1.1;;;;;;;13.7;100.0;101140;;;;
2022/10/14 03:41:00;;;;;;;1.1;1.1;;;;;;;13.7;100.0;101140;;;;
2022/10/14 03:42:00;;;;;;;1.1;1.1;;;;;;;13.7;100.0;101140;;;;
2022/10/14 03:43:00;;;;;;;1.1;1.1;;;;;;;13.7;100.0;101140;;;;
2022/10/14 03:44:00;;;;;;;1.1;1.1;;;;;;;13.7;100.0;101140;;;;
2022/10/14 03:45:00;;;;;;;1.1;1.1;;;;;;;13.7;100.0;101140;;;;
2022/10/14 03:46:00;;;;;;;1.1;1.1;;;;;;;13.6;100.0;101140;;;;
2022/10/14 03:47:00;;;;;;;1.1;1.1;;;;;;;13.6;100.0;101140;;;;
2022/10/14 03:48:00;;;;;;;1.1;1.1;;;;;;;13.7;100.0;101130;;;;
2022/10/14 03:49:00;;;;;;;1.1;1.1;;;;;;;13.7;100.0;101130;;;;
2022/10/14 03:50:01;;;;;;;1.1;1.1;;;;;;;13.7;100.0;101140;;;;
2022/10/14 03:51:00;;;;;;;1.1;1.1;;;;;;;13.7;100.0;101140;;;;
2022/10/14 03:52:00;;;;;;;1.1;1.1;;;;;;;13.7;100.0;101130;;;;
2022/10/14 03:53:00;;;;;;;1.1;1.1;;;;;;;13.7;100.0;101130;;;;
2022/10/14 03:54:00;;;;;;;1.1;1.1;;;;;;;13.7;100.0;101130;;;;
2022/10/14 03:55:00;;;;;;;1.1;1.1;;;;;;;13.7;100.0;101130;;;;
2022/10/14 03:56:00;;;;;;;1.1;1.1;;;;;;;13.6;100.0;101130;;;;
2022/10/14 03:57:00;;;;;;;1.0;1.0;;;;;;;13.6;100.0;101130;;;;
2022/10/14 03:58:00;;;;;;;1.0;1.0;;;;;;;13.5;100.0;101130;;;;
2022/10/14 03:59:00;;;;;;;1.0;1.0;;;;;;;13.5;100.0;101130;;;;
2022/10/14 04:00:00;;;;;;;1.0;1.0;;;;;;;13.6;100.0;101130;;;;
2022/10/14 04:01:00;;;;;;;1.0;1.0;;;;;;;13.6;100.0;101130;;;;
2022/10/14 04:02:00;;;;;;;1.0;1.0;;;;;;;13.7;100.0;101130;;;;
2022/10/14 04:03:00;;;;;;;1.0;1.0;;;;;;;13.7;100.0;101130;;;;
2022/10/14 04:04:00;;;;;;;1.0;1.0;;;;;;;13.6;100.0;101130;;;;
2022/10/14 04:05:01;;;;;;;1.0;1.0;;;;;;;13.6;100.0;101130;;;;
2022/10/14 04:06:00;;;;;;;1.0;1.0;;;;;;;13.8;100.0;101130;;;;
2022/10/14 04:07:00;;;;;;;1.0;1.0;;;;;;;13.8;100.0;101130;;;;
2022/10/14 04:08:00;;;;;;;1.0;1.0;;;;;;;13.6;100.0;101130;;;;
2022/10/14 04:09:00;;;;;;;1.0;1.0;;;;;;;13.6;100.0;101130;;;;
2022/10/14 04:10:00;;;;;;;1.0;1.0;;;;;;;13.6;100.0;101120;;;;
2022/10/14 04:11:00;;;;;;;1.0;1.0;;;;;;;13.6;100.0;101120;;;;
2022/10/14 04:12:00;;;;;;;1.0;1.0;;;;;;;13.6;100.0;101120;;;;
2022/10/14 04:13:00;;;;;;;1.0;1.0;;;;;;;13.6;100.0;101120;;;;
2022/10/14 04:14:00;;;;;;;1.0;1.0;;;;;;;13.6;100.0;101110;;;;
2022/10/14 04:15:00;;;;;;;1.0;1.0;;;;;;;13.6;100.0;101110;;;;
2022/10/14 04:16:04;;;;;;;1.0;1.0;;;;;;;13.4;100.0;101110;;;;
2022/10/14 04:17:00;;;;;;;0.5;0.5;;;;;;;13.4;100.0;101110;;;;
2022/10/14 04:18:00;;;;;;;0.5;0.5;;;;;;;13.6;100.0;101110;;;;
2022/10/14 04:19:00;;;;;;;0.5;0.5;;;;;;;13.6;100.0;101110;;;;
2022/10/14 04:20:00;;;;;;;0.5;0.5;;;;;;;13.6;100.0;101100;;;;
2022/10/14 04:21:00;;;;;;;0.5;0.5;;;;;;;13.6;100.0;101100;;;;
2022/10/14 04:22:00;;;;;;;0.5;0.5;;;;;;;13.6;100.0;101100;;;;
2022/10/14 04:23:00;;;;;;;0.5;0.5;;;;;;;13.6;100.0;101100;;;;
2022/10/14 04:24:06;;;;;;;0.5;0.5;;;;;;;13.5;100.0;101100;;;;
2022/10/14 04:25:00;;;;;;;0.5;0.5;;;;;;;13.5;100.0;101100;;;;
2022/10/14 04:26:04;;;;;;;0.5;0.5;;;;;;;13.5;100.0;101100;;;;
2022/10/14 04:27:00;;;;;;;0.5;0.5;;;;;;;13.5;100.0;101100;;;;
2022/10/14 04:28:00;;;;;;;0.5;0.5;;;;;;;13.7;100.0;101100;;;;
2022/10/14 04:29:00;;;;;;;0.5;0.5;;;;;;;13.7;100.0;101100;;;;
2022/10/14 04:30:00;;;;;;;0.5;0.5;;;;;;;13.7;100.0;101100;;;;
2022/10/14 04:31:00;;;;;;;0.5;0.5;;;;;;;13.7;100.0;101100;;;;
2022/10/14 04:32:00;;;;;;;0.5;0.5;;;;;;;13.7;100.0;101100;;;;
2022/10/14 04:33:00;;;;;;;0.5;0.5;;;;;;;13.7;100.0;101100;;;;
2022/10/14 04:34:00;;;;;;;0.5;0.5;;;;;;;13.6;100.0;101090;;;;
2022/10/14 04:35:00;;;;;;;0.5;0.5;;;;;;;13.6;100.0;101090;;;;
2022/10/14 04:36:01;;;;;;;0.5;0.5;;;;;;;13.6;100.0;101090;;;;
2022/10/14 04:37:00;;;;;;;0.6;0.6;;;;;;;13.6;100.0;101090;;;;
2022/10/14 04:38:00;;;;;;;0.6;0.6;;;;;;;13.7;100.0;101100;;;;
2022/10/14 04:39:00;;;;;;;0.6;0.6;;;;;;;13.7;100.0;101100;;;;
2022/10/14 04:40:00;;;;;;;0.6;0.6;;;;;;;13.7;100.0;101090;;;;
2022/10/14 04:41:00;;;;;;;0.6;0.6;;;;;;;13.7;100.0;101090;;;;
2022/10/14 04:42:00;;;;;;;0.6;0.6;;;;;;;13.7;100.0;101090;;;;
2022/10/14 04:43:00;;;;;;;0.6;0.6;;;;;;;13.7;100.0;101090;;;;
2022/10/14 04:44:00;;;;;;;0.6;0.6;;;;;;;13.7;100.0;101090;;;;
2022/10/14 04:45:00;;;;;;;0.6;0.6;;;;;;;13.7;100.0;101090;;;;
2022/10/14 04:46:00;;;;;;;0.6;0.6;;;;;;;13.7;100.0;101090;;;;
2022/10/14 04:47:00;;;;;;;0.6;0.6;;;;;;;13.7;100.0;101090;;;;
2022/10/14 04:48:00;;;;;;;0.6;0.6;;;;;;;13.9;100.0;101090;;;;
2022/10/14 04:49:00;;;;;;;0.6;0.6;;;;;;;13.9;100.0;101090;;;;
2022/10/14 04:50:00;;;;;;;0.6;0.6;;;;;;;13.8;100.0;101090;;;;
2022/10/14 04:51:00;;;;;;;0.6;0.6;;;;;;;13.8;100.0;101090;;;;
2022/10/14 04:52:00;;;;;;;0.6;0.6;;;;;;;13.8;100.0;101090;;;;
2022/10/14 04:53:00;;;;;;;0.6;0.6;;;;;;;13.8;100.0;101090;;;;
2022/10/14 04:54:00;;;;;;;0.6;0.6;;;;;;;13.8;100.0;101090;;;;
2022/10/14 04:55:02;;;;;;;0.6;0.6;;;;;;;13.8;100.0;101090;;;;
2022/10/14 04:56:00;;;;;;;0.6;0.6;;;;;;;13.8;100.0;101080;;;;
2022/10/14 04:57:00;;;;;;;0.8;0.8;;;;;;;13.8;100.0;101080;;;;
2022/10/14 04:58:00;;;;;;;0.8;0.8;;;;;;;13.7;100.0;101080;;;;
2022/10/14 04:59:00;;;;;;;0.8;0.8;;;;;;;13.7;100.0;101080;;;;
2022/10/14 05:00:00;;;;;;;0.8;0.8;;;;;;;13.6;100.0;101080;;;;
2022/10/14 05:01:00;;;;;;;0.8;0.8;;;;;;;13.6;100.0;101080;;;;
2022/10/14 05:02:00;;;;;;;0.8;0.8;;;;;;;13.6;100.0;101080;;;;
2022/10/14 05:03:00;;;;;;;0.8;0.8;;;;;;;13.6;100.0;101080;;;;
2022/10/14 05:04:00;;;;;;;0.8;0.8;;;;;;;13.7;100.0;101080;;;;
2022/10/14 05:05:00;;;;;;;0.8;0.8;;;;;;;13.7;100.0;101080;;;;
2022/10/14 05:06:00;;;;;;;0.8;0.8;;;;;;;13.8;100.0;101080;;;;
2022/10/14 05:07:00;;;;;;;0.8;0.8;;;;;;;13.8;100.0;101080;;;;
2022/10/14 05:08:00;;;;;;;0.8;0.8;;;;;;;13.7;100.0;101070;;;;
2022/10/14 05:09:00;;;;;;;0.8;0.8;;;;;;;13.7;100.0;101070;;;;
2022/10/14 05:10:00;;;;;;;0.8;0.8;;;;;;;13.6;100.0;101070;;;;
2022/10/14 05:11:01;;;;;;;0.8;0.8;;;;;;;13.6;100.0;101070;;;;
2022/10/14 05:12:00;;;;;;;0.8;0.8;;;;;;;13.6;100.0;101070;;;;
2022/10/14 05:13:00;;;;;;;0.8;0.8;;;;;;;13.6;100.0;101070;;;;
2022/10/14 05:14:00;;;;;;;0.8;0.8;;;;;;;13.7;100.0;101070;;;;
2022/10/14 05:15:00;;;;;;;0.8;0.8;;;;;;;13.7;100.0;101070;;;;
2022/10/14 05:16:00;;;;;;;0.8;0.8;;;;;;;13.9;100.0;101060;;;;
2022/10/14 05:17:00;;;;;;;0.4;0.4;;;;;;;13.9;100.0;101060;;;;
2022/10/14 05:18:00;;;;;;;0.4;0.4;;;;;;;13.9;100.0;101050;;;;
2022/10/14 05:19:00;;;;;;;0.4;0.4;;;;;;;13.9;100.0;101050;;;;
2022/10/14 05:20:00;;;;;;;0.4;0.4;;;;;;;13.8;100.0;101050;;;;
2022/10/14 05:21:00;;;;;;;0.4;0.4;;;;;;;13.8;100.0;101050;;;;
2022/10/14 05:22:00;;;;;;;0.4;0.4;;;;;;;13.8;100.0;101050;;;;
2022/10/14 05:23:00;;;;;;;0.4;0.4;;;;;;;13.8;100.0;101050;;;;
2022/10/14 05:24:00;;;;;;;0.4;0.4;;;;;;;13.8;100.0;101060;;;;
2022/10/14 05:25:00;;;;;;;0.4;0.4;;;;;;;13.8;100.0;101060;;;;
2022/10/14 05:26:00;;;;;;;0.4;0.4;;;;;;;13.8;100.0;101050;;;;
2022/10/14 05:27:00;;;;;;;0.4;0.4;;;;;;;13.8;100.0;101050;;;;
2022/10/14 05:28:00;;;;;;;0.4;0.4;;;;;;;13.7;100.0;101050;;;;
2022/10/14 05:29:00;;;;;;;0.4;0.4;;;;;;;13.7;100.0;101050;;;;
2022/10/14 05:30:00;;;;;;;0.4;0.4;;;;;;;13.9;100.0;101050;;;;
2022/10/14 05:31:00;;;;;;;0.4;0.4;;;;;;;13.9;100.0;101050;;;;
2022/10/14 05:32:00;;;;;;;0.4;0.4;;;;;;;13.7;100.0;101050;;;;
2022/10/14 05:33:00;;;;;;;0.4;0.4;;;;;;;13.7;100.0;101050;;;;
2022/10/14 05:35:00;;;;;;;0.4;0.4;;;;;;;13.7;100.0;101040;;;;
2022/10/14 05:36:00;;;;;;;0.4;0.4;;;;;;;13.7;100.0;101040;;;;
2022/10/14 05:37:00;;;;;;;0.5;0.5;;;;;;;13.7;100.0;101040;;;;
2022/10/14 05:38:04;;;;;;;0.5;0.5;;;;;;;13.7;100.0;101040;;;;
2022/10/14 05:39:00;;;;;;;0.5;0.5;;;;;;;13.7;100.0;101040;;;;
2022/10/14 05:40:00;;;;;;;0.5;0.5;;;;;;;13.7;100.0;101030;;;;
2022/10/14 05:41:00;;;;;;;0.5;0.5;;;;;;;13.7;100.0;101030;;;;
2022/10/14 05:42:00;;;;;;;0.5;0.5;;;;;;;13.8;100.0;101030;;;;
2022/10/14 05:43:00;;;;;;;0.5;0.5;;;;;;;13.8;100.0;101030;;;;
2022/10/14 05:44:00;;;;;;;0.5;0.5;;;;;;;13.8;100.0;101030;;;;
2022/10/14 05:45:00;;;;;;;0.5;0.5;;;;;;;13.8;100.0;101030;;;;
2022/10/14 05:46:00;;;;;;;0.5;0.5;;;;;;;13.9;100.0;101020;;;;
2022/10/14 05:47:00;;;;;;;0.5;0.5;;;;;;;13.9;100.0;101020;;;;
2022/10/14 05:48:00;;;;;;;0.5;0.5;;;;;;;13.8;100.0;101020;;;;
2022/10/14 05:49:04;;;;;;;0.5;0.5;;;;;;;13.8;100.0;101020;;;;
2022/10/14 05:50:02;;;;;;;0.5;0.5;;;;;;;13.8;100.0;101020;;;;
2022/10/14 05:51:02;;;;;;;0.5;0.5;;;;;;;13.8;100.0;101020;;;;
2022/10/14 05:52:00;;;;;;;0.5;0.5;;;;;;;13.9;100.0;101010;;;;
2022/10/14 05:53:00;;;;;;;0.5;0.5;;;;;;;13.9;100.0;101010;;;;
2022/10/14 05:54:00;;;;;;;0.5;0.5;;;;;;;13.8;100.0;101020;;;;
2022/10/14 05:55:00;;;;;;;0.5;0.5;;;;;;;13.8;100.0;101020;;;;
2022/10/14 05:56:01;;;;;;;0.5;0.5;;;;;;;13.8;100.0;101020;;;;
2022/10/14 05:57:00;;;;;;;0.7;0.7;;;;;;;13.8;100.0;101020;;;;
2022/10/14 05:58:00;;;;;;;0.7;0.7;;;;;;;13.8;100.0;101020;;;;
2022/10/14 05:59:00;;;;;;;0.7;0.7;;;;;;;13.8;100.0;101020;;;;
2022/10/14 06:00:00;;;;;;;0.7;0.7;;;;;;;13.9;100.0;101010;;;;
2022/10/14 06:01:00;;;;;;;0.7;0.7;;;;;;;13.9;100.0;101010;;;;
2022/10/14 06:02:00;;;;;;;0.7;0.7;;;;;;;13.8;100.0;101010;;;;
2022/10/14 06:03:00;;;;;;;0.7;0.7;;;;;;;13.8;100.0;101010;;;;
2022/10/14 06:04:00;;;;;;;0.7;0.7;;;;;;;13.8;100.0;101010;;;;
2022/10/14 06:05:00;;;;;;;0.7;0.7;;;;;;;13.8;100.0;101010;;;;
2022/10/14 06:06:00;;;;;;;0.7;0.7;;;;;;;13.8;100.0;101010;;;;
2022/10/14 06:07:00;;;;;;;0.7;0.7;;;;;;;13.8;100.0;101010;;;;
2022/10/14 06:08:00;;;;;;;0.7;0.7;;;;;;;13.8;100.0;101010;;;;
2022/10/14 06:09:00;;;;;;;0.7;0.7;;;;;;;13.8;100.0;101010;;;;
2022/10/14 06:10:00;;;;;;;0.7;0.7;;;;;;;13.9;100.0;101010;;;;
2022/10/14 06:11:02;;;;;;;0.7;0.7;;;;;;;13.9;100.0;101010;;;;
2022/10/14 06:12:00;;;;;;;0.7;0.7;;;;;;;13.9;100.0;101010;;;;
2022/10/14 06:13:00;;;;;;;0.7;0.7;;;;;;;13.9;100.0;101010;;;;
2022/10/14 06:14:00;;;;;;;0.7;0.7;;;;;;;13.9;100.0;101010;;;;
2022/10/14 06:15:00;;;;;;;0.7;0.7;;;;;;;13.9;100.0;101010;;;;
2022/10/14 06:16:02;;;;;;;0.7;0.7;;;;;;;13.9;100.0;101010;;;;
2022/10/14 06:17:00;;;;;;;0.5;0.5;;;;;;;13.9;100.0;101010;;;;
2022/10/14 06:18:00;;;;;;;0.5;0.5;;;;;;;13.8;100.0;101000;;;;
2022/10/14 06:19:00;;;;;;;0.5;0.5;;;;;;;13.8;100.0;101000;;;;
2022/10/14 06:20:00;;;;;;;0.5;0.5;;;;;;;13.9;100.0;101000;;;;
2022/10/14 06:21:00;;;;;;;0.5;0.5;;;;;;;13.9;100.0;101000;;;;
2022/10/14 06:22:00;;;;;;;0.5;0.5;;;;;;;13.9;100.0;101000;;;;
2022/10/14 06:23:01;;;;;;;0.5;0.5;;;;;;;13.9;100.0;101000;;;;